sensor_id;sensor_type;location;lat;lon;timestamp;pressure;altitude;pressure_sealevel;temperature;humidity
46534;BME280;32260;52.008;4.752;2023-11-21T00:01:26;101174.72;;;9.37;72.97
46534;BME280;32260;52.008;4.752;2023-11-21T00:03:52;101176.50;;;9.38;72.66
46534;BME280;32260;52.008;4.752;2023-11-21T00:06:21;101171.19;;;9.38;73.03
46534;BME280;32260;52.008;4.752;2023-11-21T00:08:47;101167.66;;;9.41;73.07
46534;BME280;32260;52.008;4.752;2023-11-21T00:11:13;101176.44;;;9.45;72.88
46534;BME280;32260;52.008;4.752;2023-11-21T00:13:39;101180.81;;;9.46;72.99
46534;BME280;32260;52.008;4.752;2023-11-21T00:16:06;101172.88;;;9.46;73.29
46534;BME280;32260;52.008;4.752;2023-11-21T00:18:33;101185.19;;;9.50;73.28
46534;BME280;32260;52.008;4.752;2023-11-21T00:20:59;101185.16;;;9.54;73.45
46534;BME280;32260;52.008;4.752;2023-11-21T00:23:25;101180.72;;;9.57;73.30
46534;BME280;32260;52.008;4.752;2023-11-21T00:25:51;101178.91;;;9.63;73.22
46534;BME280;32260;52.008;4.752;2023-11-21T00:28:18;101183.25;;;9.67;73.36
46534;BME280;32260;52.008;4.752;2023-11-21T00:30:44;101184.94;;;9.75;73.75
46534;BME280;32260;52.008;4.752;2023-11-21T00:33:10;101178.66;;;9.82;73.54
46534;BME280;32260;52.008;4.752;2023-11-21T00:35:36;101183.88;;;9.90;73.66
46534;BME280;32260;52.008;4.752;2023-11-21T00:38:03;101181.16;;;9.94;73.99
46534;BME280;32260;52.008;4.752;2023-11-21T00:40:29;101186.38;;;10.00;73.77
46534;BME280;32260;52.008;4.752;2023-11-21T00:42:55;101187.22;;;10.07;73.99
46534;BME280;32260;52.008;4.752;2023-11-21T00:45:22;101181.84;;;10.13;74.02
46534;BME280;32260;52.008;4.752;2023-11-21T00:47:48;101191.50;;;10.16;73.95
46534;BME280;32260;52.008;4.752;2023-11-21T00:50:14;101187.91;;;10.20;74.09
46534;BME280;32260;52.008;4.752;2023-11-21T00:52:41;101190.50;;;10.25;74.05
46534;BME280;32260;52.008;4.752;2023-11-21T00:55:07;101194.00;;;10.27;74.09
46534;BME280;32260;52.008;4.752;2023-11-21T00:57:35;101193.09;;;10.28;74.25
46534;BME280;32260;52.008;4.752;2023-11-21T01:00:01;101198.34;;;10.32;74.22
46534;BME280;32260;52.008;4.752;2023-11-21T01:02:27;101199.22;;;10.34;74.21
46534;BME280;32260;52.008;4.752;2023-11-21T01:04:54;101198.34;;;10.37;74.49
46534;BME280;32260;52.008;4.752;2023-11-21T01:07:21;101204.47;;;10.39;74.49
46534;BME280;32260;52.008;4.752;2023-11-21T01:09:47;101207.06;;;10.44;74.29
46534;BME280;32260;52.008;4.752;2023-11-21T01:12:14;101199.94;;;10.47;74.18
46534;BME280;32260;52.008;4.752;2023-11-21T01:14:40;101202.56;;;10.49;74.07
46534;BME280;32260;52.008;4.752;2023-11-21T01:17:07;101199.91;;;10.52;74.35
46534;BME280;32260;52.008;4.752;2023-11-21T01:19:33;101198.06;;;10.54;74.16
46534;BME280;32260;52.008;4.752;2023-11-21T01:21:59;101200.66;;;10.59;74.26
46534;BME280;32260;52.008;4.752;2023-11-21T01:24:25;101206.81;;;10.62;74.15
46534;BME280;32260;52.008;4.752;2023-11-21T01:26:51;101212.06;;;10.65;74.26
46534;BME280;32260;52.008;4.752;2023-11-21T01:29:17;101217.31;;;10.68;74.63
46534;BME280;32260;52.008;4.752;2023-11-21T01:31:44;101219.94;;;10.72;74.65
46534;BME280;32260;52.008;4.752;2023-11-21T01:34:10;101226.91;;;10.77;74.59
46534;BME280;32260;52.008;4.752;2023-11-21T01:36:36;101228.59;;;10.81;74.68
46534;BME280;32260;52.008;4.752;2023-11-21T01:39:02;101229.44;;;10.85;74.11
46534;BME280;32260;52.008;4.752;2023-11-21T01:41:33;101238.22;;;10.89;74.48
46534;BME280;32260;52.008;4.752;2023-11-21T01:44:00;101238.16;;;10.93;74.26
46534;BME280;32260;52.008;4.752;2023-11-21T01:46:26;101240.75;;;10.96;74.50
46534;BME280;32260;52.008;4.752;2023-11-21T01:48:53;101244.28;;;10.98;74.02
46534;BME280;32260;52.008;4.752;2023-11-21T01:51:20;101247.78;;;10.99;74.17
46534;BME280;32260;52.008;4.752;2023-11-21T01:53:46;101249.53;;;11.02;74.27
46534;BME280;32260;52.008;4.752;2023-11-21T01:56:13;101238.00;;;11.03;74.07
46534;BME280;32260;52.008;4.752;2023-11-21T01:58:40;101251.31;;;10.99;74.41
46534;BME280;32260;52.008;4.752;2023-11-21T02:01:07;101253.94;;;11.01;74.08
46534;BME280;32260;52.008;4.752;2023-11-21T02:03:34;101249.53;;;11.00;73.79
46534;BME280;32260;52.008;4.752;2023-11-21T02:06:01;101258.41;;;10.97;74.01
46534;BME280;32260;52.008;4.752;2023-11-21T02:08:27;101255.75;;;10.97;74.12
46534;BME280;32260;52.008;4.752;2023-11-21T02:10:53;101258.41;;;10.97;73.72
46534;BME280;32260;52.008;4.752;2023-11-21T02:13:19;101256.59;;;11.01;74.05
46534;BME280;32260;52.008;4.752;2023-11-21T02:15:45;101259.28;;;10.99;73.73
46534;BME280;32260;52.008;4.752;2023-11-21T02:18:13;101259.25;;;11.01;73.90
46534;BME280;32260;52.008;4.752;2023-11-21T02:20:41;101258.34;;;11.02;73.81
46534;BME280;32260;52.008;4.752;2023-11-21T02:23:08;101257.47;;;11.03;73.83
46534;BME280;32260;52.008;4.752;2023-11-21T02:25:34;101265.34;;;11.06;74.36
46534;BME280;32260;52.008;4.752;2023-11-21T02:28:03;101266.19;;;11.10;74.23
46534;BME280;32260;52.008;4.752;2023-11-21T02:30:30;101263.50;;;11.13;73.93
46534;BME280;32260;52.008;4.752;2023-11-21T02:32:58;101256.38;;;11.16;74.00
46534;BME280;32260;52.008;4.752;2023-11-21T02:35:25;101260.75;;;11.19;73.62
46534;BME280;32260;52.008;4.752;2023-11-21T02:37:52;101264.25;;;11.21;73.86
46534;BME280;32260;52.008;4.752;2023-11-21T02:40:18;101273.97;;;11.22;74.19
46534;BME280;32260;52.008;4.752;2023-11-21T02:42:47;101272.16;;;11.24;74.01
46534;BME280;32260;52.008;4.752;2023-11-21T02:45:14;101274.75;;;11.27;74.24
46534;BME280;32260;52.008;4.752;2023-11-21T02:47:43;101274.75;;;11.27;73.92
46534;BME280;32260;52.008;4.752;2023-11-21T02:50:09;101272.09;;;11.27;73.97
46534;BME280;32260;52.008;4.752;2023-11-21T02:52:36;101283.56;;;11.29;73.76
46534;BME280;32260;52.008;4.752;2023-11-21T02:55:04;101275.59;;;11.31;74.08
46534;BME280;32260;52.008;4.752;2023-11-21T02:57:30;101281.72;;;11.35;73.67
46534;BME280;32260;52.008;4.752;2023-11-21T02:59:56;101272.88;;;11.36;73.89
46534;BME280;32260;52.008;4.752;2023-11-21T03:02:22;101285.16;;;11.40;73.84
46534;BME280;32260;52.008;4.752;2023-11-21T03:04:49;101279.81;;;11.43;73.89
46534;BME280;32260;52.008;4.752;2023-11-21T03:07:16;101288.63;;;11.45;73.69
46534;BME280;32260;52.008;4.752;2023-11-21T03:09:42;101280.66;;;11.46;74.18
46534;BME280;32260;52.008;4.752;2023-11-21T03:12:09;101280.63;;;11.48;73.83
46534;BME280;32260;52.008;4.752;2023-11-21T03:14:35;101286.75;;;11.50;73.90
46534;BME280;32260;52.008;4.752;2023-11-21T03:17:02;101288.47;;;11.54;74.32
46534;BME280;32260;52.008;4.752;2023-11-21T03:19:30;101285.81;;;11.54;74.07
46534;BME280;32260;52.008;4.752;2023-11-21T03:21:57;101283.13;;;11.56;73.97
46534;BME280;32260;52.008;4.752;2023-11-21T03:24:23;101286.66;;;11.56;74.42
46534;BME280;32260;52.008;4.752;2023-11-21T03:26:49;101283.09;;;11.57;74.25
46534;BME280;32260;52.008;4.752;2023-11-21T03:29:16;101283.06;;;11.59;74.52
46534;BME280;32260;52.008;4.752;2023-11-21T03:31:43;101290.16;;;11.58;74.22
46534;BME280;32260;52.008;4.752;2023-11-21T03:34:23;101292.75;;;11.63;74.56
46534;BME280;32260;52.008;4.752;2023-11-21T03:36:50;101290.13;;;11.61;73.95
46534;BME280;32260;52.008;4.752;2023-11-21T03:39:16;101298.09;;;11.61;74.33
46534;BME280;32260;52.008;4.752;2023-11-21T03:41:42;101300.75;;;11.61;74.03
46534;BME280;32260;52.008;4.752;2023-11-21T03:44:08;101301.66;;;11.60;74.42
46534;BME280;32260;52.008;4.752;2023-11-21T03:46:35;101300.75;;;11.61;74.11
46534;BME280;32260;52.008;4.752;2023-11-21T03:49:01;101301.66;;;11.60;74.14
46534;BME280;32260;52.008;4.752;2023-11-21T03:51:27;101313.09;;;11.62;74.55
46534;BME280;32260;52.008;4.752;2023-11-21T03:53:53;101317.50;;;11.63;74.37
46534;BME280;32260;52.008;4.752;2023-11-21T03:56:20;101316.59;;;11.64;74.04
46534;BME280;32260;52.008;4.752;2023-11-21T03:58:49;101314.81;;;11.67;74.10
46534;BME280;32260;52.008;4.752;2023-11-21T04:01:23;101325.34;;;11.73;74.09
46534;BME280;32260;52.008;4.752;2023-11-21T04:03:50;101327.13;;;11.71;74.14
46534;BME280;32260;52.008;4.752;2023-11-21T04:06:17;101331.53;;;11.72;74.12
46534;BME280;32260;52.008;4.752;2023-11-21T04:08:44;101333.28;;;11.73;74.06
46534;BME280;32260;52.008;4.752;2023-11-21T04:11:11;101328.81;;;11.75;74.09
46534;BME280;32260;52.008;4.752;2023-11-21T04:13:39;101337.63;;;11.77;74.14
46534;BME280;32260;52.008;4.752;2023-11-21T04:16:07;101337.63;;;11.77;73.88
46534;BME280;32260;52.008;4.752;2023-11-21T04:18:35;101338.53;;;11.76;74.57
46534;BME280;32260;52.008;4.752;2023-11-21T04:21:01;101348.25;;;11.77;74.64
46534;BME280;32260;52.008;4.752;2023-11-21T04:23:29;101347.38;;;11.78;74.53
46534;BME280;32260;52.008;4.752;2023-11-21T04:25:56;101345.56;;;11.78;74.00
46534;BME280;32260;52.008;4.752;2023-11-21T04:28:23;101344.72;;;11.78;74.14
46534;BME280;32260;52.008;4.752;2023-11-21T04:30:50;101354.47;;;11.76;74.02
46534;BME280;32260;52.008;4.752;2023-11-21T04:33:16;101364.19;;;11.77;74.01
46534;BME280;32260;52.008;4.752;2023-11-21T04:35:43;101363.38;;;11.72;74.40
46534;BME280;32260;52.008;4.752;2023-11-21T04:38:09;101371.28;;;11.75;74.28
46534;BME280;32260;52.008;4.752;2023-11-21T04:40:35;101372.28;;;11.69;74.37
46534;BME280;32260;52.008;4.752;2023-11-21T04:43:01;101376.66;;;11.72;74.36
46534;BME280;32260;52.008;4.752;2023-11-21T04:45:27;101372.22;;;11.72;74.55
46534;BME280;32260;52.008;4.752;2023-11-21T04:47:53;101381.00;;;11.76;74.24
46534;BME280;32260;52.008;4.752;2023-11-21T04:50:20;101381.88;;;11.78;74.70
46534;BME280;32260;52.008;4.752;2023-11-21T04:52:46;101377.41;;;11.81;74.00
46534;BME280;32260;52.008;4.752;2023-11-21T04:55:12;101382.63;;;11.85;74.25
46534;BME280;32260;52.008;4.752;2023-11-21T04:57:38;101390.59;;;11.85;74.54
46534;BME280;32260;52.008;4.752;2023-11-21T05:00:09;101395.88;;;11.86;74.74
46534;BME280;32260;52.008;4.752;2023-11-21T05:02:35;101400.28;;;11.87;74.02
46534;BME280;32260;52.008;4.752;2023-11-21T05:05:02;101407.34;;;11.90;74.77
46534;BME280;32260;52.008;4.752;2023-11-21T05:07:28;101413.47;;;11.93;74.56
46534;BME280;32260;52.008;4.752;2023-11-21T05:09:55;101406.38;;;11.95;74.76
46534;BME280;32260;52.008;4.752;2023-11-21T05:12:24;101402.84;;;11.96;75.24
46534;BME280;32260;52.008;4.752;2023-11-21T05:14:50;101404.53;;;12.01;74.54
46534;BME280;32260;52.008;4.752;2023-11-21T05:17:17;101410.72;;;12.03;74.61
46534;BME280;32260;52.008;4.752;2023-11-21T05:19:43;101404.50;;;12.04;75.30
46534;BME280;32260;52.008;4.752;2023-11-21T05:22:11;101402.69;;;12.06;74.62
46534;BME280;32260;52.008;4.752;2023-11-21T05:24:38;101410.69;;;12.04;74.70
46534;BME280;32260;52.008;4.752;2023-11-21T05:27:05;101412.47;;;12.02;74.82
46534;BME280;32260;52.008;4.752;2023-11-21T05:29:31;101419.56;;;12.02;74.76
46534;BME280;32260;52.008;4.752;2023-11-21T05:31:57;101426.66;;;12.03;74.75
46534;BME280;32260;52.008;4.752;2023-11-21T05:34:23;101428.41;;;12.04;74.46
46534;BME280;32260;52.008;4.752;2023-11-21T05:36:50;101427.56;;;11.98;75.16
46534;BME280;32260;52.008;4.752;2023-11-21T05:39:16;101438.16;;;12.02;75.14
46534;BME280;32260;52.008;4.752;2023-11-21T05:41:44;101436.41;;;12.01;75.24
46534;BME280;32260;52.008;4.752;2023-11-21T05:44:11;101434.66;;;12.00;75.01
46534;BME280;32260;52.008;4.752;2023-11-21T05:46:38;101437.31;;;12.00;74.90
46534;BME280;32260;52.008;4.752;2023-11-21T05:49:04;101438.19;;;11.98;74.52
46534;BME280;32260;52.008;4.752;2023-11-21T05:51:30;101446.16;;;12.00;74.85
46534;BME280;32260;52.008;4.752;2023-11-21T05:53:56;101450.66;;;11.96;75.18
46534;BME280;32260;52.008;4.752;2023-11-21T05:56:22;101449.75;;;11.94;74.77
46534;BME280;32260;52.008;4.752;2023-11-21T05:58:48;101455.97;;;11.93;74.70
46534;BME280;32260;52.008;4.752;2023-11-21T06:01:14;101460.44;;;11.91;75.37
46534;BME280;32260;52.008;4.752;2023-11-21T06:03:40;101465.75;;;11.91;75.61
46534;BME280;32260;52.008;4.752;2023-11-21T06:06:07;101468.41;;;11.91;75.61
46534;BME280;32260;52.008;4.752;2023-11-21T06:08:33;101470.13;;;11.92;76.05
46534;BME280;32260;52.008;4.752;2023-11-21T06:10:59;101471.88;;;11.93;76.11
46534;BME280;32260;52.008;4.752;2023-11-21T06:13:25;101478.03;;;11.98;75.96
46534;BME280;32260;52.008;4.752;2023-11-21T06:15:52;101479.78;;;12.00;75.65
46534;BME280;32260;52.008;4.752;2023-11-21T06:18:18;101488.56;;;12.05;75.85
46534;BME280;32260;52.008;4.752;2023-11-21T06:20:46;101489.38;;;12.10;75.97
46534;BME280;32260;52.008;4.752;2023-11-21T06:23:12;101489.34;;;12.13;75.35
46534;BME280;32260;52.008;4.752;2023-11-21T06:25:38;101491.03;;;12.17;75.28
46534;BME280;32260;52.008;4.752;2023-11-21T06:28:05;101477.75;;;12.19;75.67
46534;BME280;32260;52.008;4.752;2023-11-21T06:30:31;101494.47;;;12.22;75.69
46534;BME280;32260;52.008;4.752;2023-11-21T06:32:57;101495.38;;;12.23;76.27
46534;BME280;32260;52.008;4.752;2023-11-21T06:35:25;101496.22;;;12.26;75.59
46534;BME280;32260;52.008;4.752;2023-11-21T06:37:53;101490.91;;;12.26;75.55
46534;BME280;32260;52.008;4.752;2023-11-21T06:40:19;101498.00;;;12.24;76.08
46534;BME280;32260;52.008;4.752;2023-11-21T06:42:45;101500.69;;;12.23;75.53
46534;BME280;32260;52.008;4.752;2023-11-21T06:45:12;101508.69;;;12.21;75.80
46534;BME280;32260;52.008;4.752;2023-11-21T06:47:39;101515.84;;;12.16;76.02
46534;BME280;32260;52.008;4.752;2023-11-21T06:50:06;101521.16;;;12.18;75.50
46534;BME280;32260;52.008;4.752;2023-11-21T06:52:33;101514.06;;;12.17;75.70
46534;BME280;32260;52.008;4.752;2023-11-21T06:54:59;101522.91;;;12.17;76.04
46534;BME280;32260;52.008;4.752;2023-11-21T06:57:25;101527.38;;;12.15;76.34
46534;BME280;32260;52.008;4.752;2023-11-21T06:59:51;101538.88;;;12.16;76.33
46534;BME280;32260;52.008;4.752;2023-11-21T07:02:17;101543.31;;;12.15;75.95
46534;BME280;32260;52.008;4.752;2023-11-21T07:04:45;101545.16;;;12.11;76.50
46534;BME280;32260;52.008;4.752;2023-11-21T07:07:12;101551.38;;;12.09;76.36
46534;BME280;32260;52.008;4.752;2023-11-21T07:09:39;101552.16;;;12.16;76.41
46534;BME280;32260;52.008;4.752;2023-11-21T07:12:05;101548.75;;;12.06;76.83
46534;BME280;32260;52.008;4.752;2023-11-21T07:14:34;101556.69;;;12.09;76.47
46534;BME280;32260;52.008;4.752;2023-11-21T07:17:00;101559.34;;;12.09;76.46
46534;BME280;32260;52.008;4.752;2023-11-21T07:19:26;101553.97;;;12.12;76.54
46534;BME280;32260;52.008;4.752;2023-11-21T07:21:52;101563.72;;;12.13;77.00
46534;BME280;32260;52.008;4.752;2023-11-21T07:24:19;101560.16;;;12.14;76.88
46534;BME280;32260;52.008;4.752;2023-11-21T07:26:45;101571.72;;;12.11;77.11
46534;BME280;32260;52.008;4.752;2023-11-21T07:29:11;101576.09;;;12.14;77.33
46534;BME280;32260;52.008;4.752;2023-11-21T07:31:37;101573.47;;;12.12;77.22
46534;BME280;32260;52.008;4.752;2023-11-21T07:34:04;101592.16;;;12.05;77.63
46534;BME280;32260;52.008;4.752;2023-11-21T07:36:30;101586.63;;;12.20;77.56
46534;BME280;32260;52.008;4.752;2023-11-21T07:38:56;101596.41;;;12.18;77.01
46534;BME280;32260;52.008;4.752;2023-11-21T07:41:22;101591.84;;;12.26;76.93
46534;BME280;32260;52.008;4.752;2023-11-21T07:43:48;101597.19;;;12.23;76.93
46534;BME280;32260;52.008;4.752;2023-11-21T07:46:14;101596.41;;;12.18;77.35
46534;BME280;32260;52.008;4.752;2023-11-21T07:48:42;101607.75;;;12.29;77.20
46534;BME280;32260;52.008;4.752;2023-11-21T07:51:08;101609.47;;;12.32;77.11
46534;BME280;32260;52.008;4.752;2023-11-21T07:53:36;101616.50;;;12.35;77.00
46534;BME280;32260;52.008;4.752;2023-11-21T07:56:05;101617.38;;;12.37;77.05
46534;BME280;32260;52.008;4.752;2023-11-21T07:58:31;101623.66;;;12.33;77.11
46534;BME280;32260;52.008;4.752;2023-11-21T08:01:00;101627.94;;;12.40;76.94
46534;BME280;32260;52.008;4.752;2023-11-21T08:03:26;101633.28;;;12.41;76.72
46534;BME280;32260;52.008;4.752;2023-11-21T08:05:52;101634.09;;;12.43;77.09
46534;BME280;32260;52.008;4.752;2023-11-21T08:08:19;101635.84;;;12.46;77.10
46534;BME280;32260;52.008;4.752;2023-11-21T08:10:45;101644.66;;;12.48;76.46
46534;BME280;32260;52.008;4.752;2023-11-21T08:13:22;101641.16;;;12.46;77.15
46534;BME280;32260;52.008;4.752;2023-11-21T08:15:54;101647.38;;;12.46;76.98
46534;BME280;32260;52.008;4.752;2023-11-21T08:18:22;101647.31;;;12.51;76.76
46534;BME280;32260;52.008;4.752;2023-11-21T08:20:48;101652.63;;;12.51;76.74
46534;BME280;32260;52.008;4.752;2023-11-21T08:23:15;101654.28;;;12.57;76.99
46534;BME280;32260;52.008;4.752;2023-11-21T08:25:43;101659.59;;;12.57;76.73
46534;BME280;32260;52.008;4.752;2023-11-21T08:28:09;101659.53;;;12.61;76.51
46534;BME280;32260;52.008;4.752;2023-11-21T08:30:36;101655.16;;;12.59;77.45
46534;BME280;32260;52.008;4.752;2023-11-21T08:33:02;101664.03;;;12.58;77.67
46534;BME280;32260;52.008;4.752;2023-11-21T08:35:29;101667.44;;;12.65;77.28
46534;BME280;32260;52.008;4.752;2023-11-21T08:37:56;101670.97;;;12.67;76.96
46534;BME280;32260;52.008;4.752;2023-11-21T08:40:22;101676.28;;;12.67;77.54
46534;BME280;32260;52.008;4.752;2023-11-21T08:42:49;101670.94;;;12.70;77.42
46534;BME280;32260;52.008;4.752;2023-11-21T08:45:18;101674.44;;;12.72;77.19
46534;BME280;32260;52.008;4.752;2023-11-21T08:47:45;101681.44;;;12.79;76.91
46534;BME280;32260;52.008;4.752;2023-11-21T08:50:11;101682.25;;;12.83;76.76
46534;BME280;32260;52.008;4.752;2023-11-21T08:52:38;101683.19;;;12.80;77.17
46534;BME280;32260;52.008;4.752;2023-11-21T08:55:06;101683.22;;;12.78;77.66
46534;BME280;32260;52.008;4.752;2023-11-21T08:57:35;101685.78;;;12.83;77.34
46534;BME280;32260;52.008;4.752;2023-11-21T09:00:04;101691.09;;;12.85;77.00
46534;BME280;32260;52.008;4.752;2023-11-21T09:02:33;101691.06;;;12.86;77.18
46534;BME280;32260;52.008;4.752;2023-11-21T09:05:00;101696.31;;;12.89;77.30
46534;BME280;32260;52.008;4.752;2023-11-21T09:07:29;101700.72;;;12.92;77.18
46534;BME280;32260;52.008;4.752;2023-11-21T09:09:55;101703.38;;;12.93;77.57
46534;BME280;32260;52.008;4.752;2023-11-21T09:12:21;101705.03;;;12.99;77.26
46534;BME280;32260;52.008;4.752;2023-11-21T09:14:48;101705.81;;;13.06;77.10
46534;BME280;32260;52.008;4.752;2023-11-21T09:17:16;101720.88;;;13.08;77.22
46534;BME280;32260;52.008;4.752;2023-11-21T09:19:42;101726.13;;;13.11;77.42
46534;BME280;32260;52.008;4.752;2023-11-21T09:22:11;101733.13;;;13.17;76.92
46534;BME280;32260;52.008;4.752;2023-11-21T09:24:37;101741.13;;;13.16;77.33
46534;BME280;32260;52.008;4.752;2023-11-21T09:27:03;101723.28;;;13.22;76.98
46534;BME280;32260;52.008;4.752;2023-11-21T09:29:31;101741.03;;;13.23;76.80
46534;BME280;32260;52.008;4.752;2023-11-21T09:31:58;101744.63;;;13.19;76.71
46534;BME280;32260;52.008;4.752;2023-11-21T09:34:25;101746.34;;;13.23;76.56
46534;BME280;32260;52.008;4.752;2023-11-21T09:36:52;101741.94;;;13.21;76.68
46534;BME280;32260;52.008;4.752;2023-11-21T09:39:18;101757.09;;;13.17;76.52
46534;BME280;32260;52.008;4.752;2023-11-21T09:41:50;101767.72;;;13.17;76.65
46534;BME280;32260;52.008;4.752;2023-11-21T09:44:20;101770.50;;;13.11;76.61
46534;BME280;32260;52.008;4.752;2023-11-21T09:46:49;101774.00;;;13.11;76.10
46534;BME280;32260;52.008;4.752;2023-11-21T09:49:18;101765.13;;;13.13;76.22
46534;BME280;32260;52.008;4.752;2023-11-21T09:51:52;101778.31;;;13.20;76.35
46534;BME280;32260;52.008;4.752;2023-11-21T09:54:21;101788.09;;;13.20;76.21
46534;BME280;32260;52.008;4.752;2023-11-21T09:56:48;101795.97;;;13.26;76.55
46534;BME280;32260;52.008;4.752;2023-11-21T09:59:16;101802.13;;;13.30;76.37
46534;BME280;32260;52.008;4.752;2023-11-21T10:01:43;101794.16;;;13.30;75.92
46534;BME280;32260;52.008;4.752;2023-11-21T10:04:09;101802.06;;;13.33;75.80
46534;BME280;32260;52.008;4.752;2023-11-21T10:06:41;101812.69;;;13.36;76.17
46534;BME280;32260;52.008;4.752;2023-11-21T10:09:10;101808.25;;;13.35;75.73
46534;BME280;32260;52.008;4.752;2023-11-21T10:11:41;101815.38;;;13.33;75.56
46534;BME280;32260;52.008;4.752;2023-11-21T10:14:10;101822.47;;;13.34;75.41
46534;BME280;32260;52.008;4.752;2023-11-21T10:16:39;101824.31;;;13.27;75.08
46534;BME280;32260;52.008;4.752;2023-11-21T10:19:09;101826.88;;;13.33;75.23
46534;BME280;32260;52.008;4.752;2023-11-21T10:21:35;101838.44;;;13.34;74.72
46534;BME280;32260;52.008;4.752;2023-11-21T10:24:02;101842.00;;;13.33;75.15
46534;BME280;32260;52.008;4.752;2023-11-21T10:26:29;101844.72;;;13.30;74.70
46534;BME280;32260;52.008;4.752;2023-11-21T10:28:59;101862.56;;;13.21;74.89
46534;BME280;32260;52.008;4.752;2023-11-21T10:31:27;101871.38;;;13.25;74.59
46534;BME280;32260;52.008;4.752;2023-11-21T10:33:53;101880.38;;;13.16;74.32
46534;BME280;32260;52.008;4.752;2023-11-21T10:36:26;101874.97;;;13.22;74.57
46534;BME280;32260;52.008;4.752;2023-11-21T10:38:53;101873.41;;;13.06;73.94
46534;BME280;32260;52.008;4.752;2023-11-21T10:41:20;101872.56;;;13.04;74.46
46534;BME280;32260;52.008;4.752;2023-11-21T10:43:47;101876.28;;;12.93;74.15
46534;BME280;32260;52.008;4.752;2023-11-21T10:46:14;101886.84;;;13.00;74.33
46534;BME280;32260;52.008;4.752;2023-11-21T10:48:42;101888.53;;;13.04;74.50
46534;BME280;32260;52.008;4.752;2023-11-21T10:51:09;101885.00;;;13.05;74.45
46534;BME280;32260;52.008;4.752;2023-11-21T10:53:43;101895.47;;;13.16;74.71
46534;BME280;32260;52.008;4.752;2023-11-21T10:56:14;101893.88;;;13.04;74.20
46534;BME280;32260;52.008;4.752;2023-11-21T10:58:44;101900.88;;;13.08;74.75
46534;BME280;32260;52.008;4.752;2023-11-21T11:01:11;101905.44;;;13.00;74.44
46534;BME280;32260;52.008;4.752;2023-11-21T11:03:38;101899.22;;;13.01;74.28
46534;BME280;32260;52.008;4.752;2023-11-21T11:06:05;101899.22;;;13.01;74.08
46534;BME280;32260;52.008;4.752;2023-11-21T11:08:37;101905.44;;;13.00;74.80
46534;BME280;32260;52.008;4.752;2023-11-21T11:11:06;101908.84;;;13.09;74.91
46534;BME280;32260;52.008;4.752;2023-11-21T11:13:32;101900.88;;;13.11;74.69
46534;BME280;32260;52.008;4.752;2023-11-21T11:15:59;101899.09;;;13.10;74.82
46534;BME280;32260;52.008;4.752;2023-11-21T11:18:30;101911.44;;;13.14;74.49
46534;BME280;32260;52.008;4.752;2023-11-21T11:21:07;101911.44;;;13.14;74.52
46534;BME280;32260;52.008;4.752;2023-11-21T11:26:47;101904.25;;;13.22;74.28
46534;BME280;32260;52.008;4.752;2023-11-21T11:29:33;101901.63;;;13.19;74.44
46534;BME280;32260;52.008;4.752;2023-11-21T11:34:47;101903.44;;;13.16;74.11
46534;BME280;32260;52.008;4.752;2023-11-21T11:37:15;101907.84;;;13.18;74.31
46534;BME280;32260;52.008;4.752;2023-11-21T11:39:42;101911.44;;;13.17;74.41
46534;BME280;32260;52.008;4.752;2023-11-21T11:42:16;101912.25;;;13.19;74.35
46534;BME280;32260;52.008;4.752;2023-11-21T11:52:44;101925.63;;;13.16;74.64
46534;BME280;32260;52.008;4.752;2023-11-21T11:55:12;101924.75;;;13.14;74.30
46534;BME280;32260;52.008;4.752;2023-11-21T11:57:42;101924.72;;;13.17;74.53
46534;BME280;32260;52.008;4.752;2023-11-21T12:02:50;101926.59;;;13.09;74.74
46534;BME280;32260;52.008;4.752;2023-11-21T12:05:20;101930.03;;;13.19;74.67
46534;BME280;32260;52.008;4.752;2023-11-21T12:07:51;101935.31;;;13.20;74.78
46534;BME280;32260;52.008;4.752;2023-11-21T12:10:21;101944.00;;;13.33;74.76
46534;BME280;32260;52.008;4.752;2023-11-21T12:12:50;101947.44;;;13.43;74.76
46534;BME280;32260;52.008;4.752;2023-11-21T12:15:19;101946.53;;;13.47;74.53
46534;BME280;32260;52.008;4.752;2023-11-21T12:17:46;101944.78;;;13.45;74.29
46534;BME280;32260;52.008;4.752;2023-11-21T12:20:15;101955.44;;;13.43;73.84
46534;BME280;32260;52.008;4.752;2023-11-21T12:22:46;101954.59;;;13.39;73.63
46534;BME280;32260;52.008;4.752;2023-11-21T12:25:14;101961.00;;;13.23;73.29
46534;BME280;32260;52.008;4.752;2023-11-21T12:27:43;101956.63;;;13.19;73.32
46534;BME280;32260;52.008;4.752;2023-11-21T12:30:11;101965.47;;;13.22;73.79
46534;BME280;32260;52.008;4.752;2023-11-21T12:32:41;101962.88;;;13.16;73.68
46534;BME280;32260;52.008;4.752;2023-11-21T12:35:08;101972.66;;;13.14;73.82
46534;BME280;32260;52.008;4.752;2023-11-21T12:37:36;101978.94;;;13.08;73.74
46534;BME280;32260;52.008;4.752;2023-11-21T12:40:05;101984.25;;;13.10;73.61
46534;BME280;32260;52.008;4.752;2023-11-21T12:42:32;101978.03;;;13.09;73.54
46534;BME280;32260;52.008;4.752;2023-11-21T12:48:02;101982.34;;;13.18;73.82
46534;BME280;32260;52.008;4.752;2023-11-21T12:50:30;101986.84;;;13.16;73.41
46534;BME280;32260;52.008;4.752;2023-11-21T12:53:01;101998.34;;;13.17;73.57
46534;BME280;32260;52.008;4.752;2023-11-21T12:55:31;101993.03;;;13.15;73.34
46534;BME280;32260;52.008;4.752;2023-11-21T12:58:00;101997.44;;;13.21;73.23
46534;BME280;32260;52.008;4.752;2023-11-21T13:00:36;101997.44;;;13.21;73.78
46534;BME280;32260;52.008;4.752;2023-11-21T13:03:05;101995.66;;;13.20;73.65
46534;BME280;32260;52.008;4.752;2023-11-21T13:05:36;102007.16;;;13.23;73.21
46534;BME280;32260;52.008;4.752;2023-11-21T13:08:06;102004.50;;;13.23;73.24
46534;BME280;32260;52.008;4.752;2023-11-21T13:10:34;102010.63;;;13.29;73.38